sensor_id;sensor_type;location;lat;lon;timestamp;P1;durP1;ratioP1;P2;durP2;ratioP2
78740;SDS011;68062;48.726;9.370;2023-05-14T00:01:52;10.93;;;8.40;;
78740;SDS011;68062;48.726;9.370;2023-05-14T00:04:20;8.90;;;8.40;;
78740;SDS011;68062;48.726;9.370;2023-05-14T00:06:47;9.63;;;8.57;;
78740;SDS011;68062;48.726;9.370;2023-05-14T00:09:14;10.17;;;8.97;;
78740;SDS011;68062;48.726;9.370;2023-05-14T00:11:41;11.70;;;10.03;;
78740;SDS011;68062;48.726;9.370;2023-05-14T00:14:07;10.60;;;9.47;;
78740;SDS011;68062;48.726;9.370;2023-05-14T00:16:34;10.17;;;8.77;;
78740;SDS011;68062;48.726;9.370;2023-05-14T00:19:00;11.80;;;10.17;;
78740;SDS011;68062;48.726;9.370;2023-05-14T00:21:28;12.77;;;9.10;;
78740;SDS011;68062;48.726;9.370;2023-05-14T00:23:55;12.10;;;9.03;;
78740;SDS011;68062;48.726;9.370;2023-05-14T00:26:22;8.83;;;8.37;;
78740;SDS011;68062;48.726;9.370;2023-05-14T00:28:49;9.23;;;8.70;;
78740;SDS011;68062;48.726;9.370;2023-05-14T00:31:15;9.83;;;8.13;;
78740;SDS011;68062;48.726;9.370;2023-05-14T00:33:42;10.23;;;9.30;;
78740;SDS011;68062;48.726;9.370;2023-05-14T00:36:10;12.50;;;9.43;;
78740;SDS011;68062;48.726;9.370;2023-05-14T00:38:38;11.70;;;9.50;;
78740;SDS011;68062;48.726;9.370;2023-05-14T00:41:06;8.53;;;8.03;;
78740;SDS011;68062;48.726;9.370;2023-05-14T00:43:32;10.00;;;8.50;;
78740;SDS011;68062;48.726;9.370;2023-05-14T00:45:59;11.43;;;9.03;;
78740;SDS011;68062;48.726;9.370;2023-05-14T00:48:26;12.53;;;9.27;;
78740;SDS011;68062;48.726;9.370;2023-05-14T00:50:53;15.00;;;10.03;;
78740;SDS011;68062;48.726;9.370;2023-05-14T00:53:20;10.83;;;8.60;;
78740;SDS011;68062;48.726;9.370;2023-05-14T00:55:48;9.10;;;8.60;;
78740;SDS011;68062;48.726;9.370;2023-05-14T00:58:16;10.37;;;8.40;;
78740;SDS011;68062;48.726;9.370;2023-05-14T01:00:43;9.87;;;8.20;;
78740;SDS011;68062;48.726;9.370;2023-05-14T01:03:10;8.70;;;7.87;;
78740;SDS011;68062;48.726;9.370;2023-05-14T01:05:38;9.50;;;9.00;;
78740;SDS011;68062;48.726;9.370;2023-05-14T01:08:15;12.03;;;8.90;;
78740;SDS011;68062;48.726;9.370;2023-05-14T01:10:49;7.93;;;7.53;;
78740;SDS011;68062;48.726;9.370;2023-05-14T01:13:21;12.60;;;7.67;;
78740;SDS011;68062;48.726;9.370;2023-05-14T01:15:53;9.23;;;8.33;;
78740;SDS011;68062;48.726;9.370;2023-05-14T01:18:22;9.27;;;8.00;;
78740;SDS011;68062;48.726;9.370;2023-05-14T01:20:50;8.80;;;7.30;;
78740;SDS011;68062;48.726;9.370;2023-05-14T01:23:18;9.07;;;8.33;;
78740;SDS011;68062;48.726;9.370;2023-05-14T01:25:45;7.40;;;6.37;;
78740;SDS011;68062;48.726;9.370;2023-05-14T01:28:13;7.10;;;6.53;;
78740;SDS011;68062;48.726;9.370;2023-05-14T01:30:44;7.97;;;7.03;;
78740;SDS011;68062;48.726;9.370;2023-05-14T01:33:15;7.97;;;6.93;;
78740;SDS011;68062;48.726;9.370;2023-05-14T01:35:43;7.60;;;7.00;;
78740;SDS011;68062;48.726;9.370;2023-05-14T01:38:11;8.43;;;7.30;;
78740;SDS011;68062;48.726;9.370;2023-05-14T01:40:41;7.40;;;6.57;;
78740;SDS011;68062;48.726;9.370;2023-05-14T01:43:09;7.20;;;6.80;;
78740;SDS011;68062;48.726;9.370;2023-05-14T01:45:36;8.43;;;6.70;;
78740;SDS011;68062;48.726;9.370;2023-05-14T01:48:03;7.20;;;6.67;;
78740;SDS011;68062;48.726;9.370;2023-05-14T01:50:30;8.10;;;7.70;;
78740;SDS011;68062;48.726;9.370;2023-05-14T01:52:57;11.17;;;9.30;;
78740;SDS011;68062;48.726;9.370;2023-05-14T01:55:25;11.20;;;9.27;;
78740;SDS011;68062;48.726;9.370;2023-05-14T01:57:54;10.07;;;7.80;;
78740;SDS011;68062;48.726;9.370;2023-05-14T02:00:22;8.57;;;7.90;;
78740;SDS011;68062;48.726;9.370;2023-05-14T02:02:49;9.97;;;8.90;;
78740;SDS011;68062;48.726;9.370;2023-05-14T02:05:16;9.03;;;8.53;;
78740;SDS011;68062;48.726;9.370;2023-05-14T02:07:42;10.43;;;8.20;;
78740;SDS011;68062;48.726;9.370;2023-05-14T02:10:09;9.27;;;8.63;;
78740;SDS011;68062;48.726;9.370;2023-05-14T02:12:36;8.43;;;7.60;;
78740;SDS011;68062;48.726;9.370;2023-05-14T02:15:05;12.70;;;8.37;;
78740;SDS011;68062;48.726;9.370;2023-05-14T02:17:34;11.10;;;8.97;;
78740;SDS011;68062;48.726;9.370;2023-05-14T02:20:01;11.77;;;9.50;;
78740;SDS011;68062;48.726;9.370;2023-05-14T02:22:28;12.57;;;9.70;;
78740;SDS011;68062;48.726;9.370;2023-05-14T02:24:55;10.30;;;9.07;;
78740;SDS011;68062;48.726;9.370;2023-05-14T02:27:21;10.90;;;8.87;;
78740;SDS011;68062;48.726;9.370;2023-05-14T02:29:48;9.77;;;8.60;;
78740;SDS011;68062;48.726;9.370;2023-05-14T02:32:16;13.63;;;9.37;;
78740;SDS011;68062;48.726;9.370;2023-05-14T02:34:43;11.17;;;9.10;;
78740;SDS011;68062;48.726;9.370;2023-05-14T02:37:10;12.57;;;9.50;;
78740;SDS011;68062;48.726;9.370;2023-05-14T02:39:37;11.17;;;8.93;;
78740;SDS011;68062;48.726;9.370;2023-05-14T02:42:05;11.10;;;9.50;;
78740;SDS011;68062;48.726;9.370;2023-05-14T02:44:32;11.43;;;9.20;;
78740;SDS011;68062;48.726;9.370;2023-05-14T02:46:59;10.50;;;8.73;;
78740;SDS011;68062;48.726;9.370;2023-05-14T02:49:27;9.90;;;8.80;;
78740;SDS011;68062;48.726;9.370;2023-05-14T02:51:54;12.77;;;9.30;;
78740;SDS011;68062;48.726;9.370;2023-05-14T02:54:20;11.70;;;8.77;;
78740;SDS011;68062;48.726;9.370;2023-05-14T02:56:47;11.90;;;9.30;;
78740;SDS011;68062;48.726;9.370;2023-05-14T02:59:13;9.97;;;9.07;;
78740;SDS011;68062;48.726;9.370;2023-05-14T03:01:40;10.43;;;8.40;;
78740;SDS011;68062;48.726;9.370;2023-05-14T03:04:06;11.60;;;9.70;;
78740;SDS011;68062;48.726;9.370;2023-05-14T03:06:35;10.40;;;9.30;;
78740;SDS011;68062;48.726;9.370;2023-05-14T03:09:01;12.97;;;9.77;;
78740;SDS011;68062;48.726;9.370;2023-05-14T03:11:28;9.63;;;8.33;;
78740;SDS011;68062;48.726;9.370;2023-05-14T03:13:55;10.17;;;7.90;;
78740;SDS011;68062;48.726;9.370;2023-05-14T03:16:22;11.33;;;9.30;;
78740;SDS011;68062;48.726;9.370;2023-05-14T03:18:48;14.20;;;9.37;;
78740;SDS011;68062;48.726;9.370;2023-05-14T03:21:15;10.40;;;9.00;;
78740;SDS011;68062;48.726;9.370;2023-05-14T03:23:44;12.07;;;9.63;;
78740;SDS011;68062;48.726;9.370;2023-05-14T03:26:10;10.60;;;8.70;;
78740;SDS011;68062;48.726;9.370;2023-05-14T03:28:37;11.27;;;8.93;;
78740;SDS011;68062;48.726;9.370;2023-05-14T03:31:04;13.37;;;9.67;;
78740;SDS011;68062;48.726;9.370;2023-05-14T03:33:30;11.27;;;10.37;;
78740;SDS011;68062;48.726;9.370;2023-05-14T03:35:58;10.80;;;9.10;;
78740;SDS011;68062;48.726;9.370;2023-05-14T03:38:24;9.93;;;9.33;;
78740;SDS011;68062;48.726;9.370;2023-05-14T03:40:52;11.17;;;9.80;;
78740;SDS011;68062;48.726;9.370;2023-05-14T03:43:19;9.90;;;7.97;;
78740;SDS011;68062;48.726;9.370;2023-05-14T03:45:46;10.70;;;8.97;;
78740;SDS011;68062;48.726;9.370;2023-05-14T03:48:17;9.80;;;8.90;;
78740;SDS011;68062;48.726;9.370;2023-05-14T03:50:44;8.57;;;8.10;;
78740;SDS011;68062;48.726;9.370;2023-05-14T03:53:10;11.90;;;9.33;;
78740;SDS011;68062;48.726;9.370;2023-05-14T03:55:37;8.97;;;8.20;;
78740;SDS011;68062;48.726;9.370;2023-05-14T03:58:10;12.03;;;9.83;;
78740;SDS011;68062;48.726;9.370;2023-05-14T04:00:39;11.50;;;10.17;;
78740;SDS011;68062;48.726;9.370;2023-05-14T04:03:06;10.07;;;9.60;;
78740;SDS011;68062;48.726;9.370;2023-05-14T04:05:32;12.87;;;9.80;;
78740;SDS011;68062;48.726;9.370;2023-05-14T04:07:59;9.80;;;9.30;;
78740;SDS011;68062;48.726;9.370;2023-05-14T04:10:27;10.20;;;8.60;;
78740;SDS011;68062;48.726;9.370;2023-05-14T04:12:53;13.20;;;10.07;;
78740;SDS011;68062;48.726;9.370;2023-05-14T04:15:23;11.27;;;9.70;;
78740;SDS011;68062;48.726;9.370;2023-05-14T04:17:50;12.20;;;10.20;;
78740;SDS011;68062;48.726;9.370;2023-05-14T04:20:17;11.50;;;9.90;;
78740;SDS011;68062;48.726;9.370;2023-05-14T04:22:44;11.73;;;10.10;;
78740;SDS011;68062;48.726;9.370;2023-05-14T04:25:11;10.80;;;9.10;;
78740;SDS011;68062;48.726;9.370;2023-05-14T04:27:37;13.50;;;10.00;;
78740;SDS011;68062;48.726;9.370;2023-05-14T04:30:05;9.47;;;8.80;;
78740;SDS011;68062;48.726;9.370;2023-05-14T04:32:34;10.60;;;9.53;;
78740;SDS011;68062;48.726;9.370;2023-05-14T04:35:02;14.53;;;10.43;;
78740;SDS011;68062;48.726;9.370;2023-05-14T04:37:29;12.60;;;10.50;;
78740;SDS011;68062;48.726;9.370;2023-05-14T04:39:57;10.47;;;9.60;;
78740;SDS011;68062;48.726;9.370;2023-05-14T04:42:24;11.00;;;9.47;;
78740;SDS011;68062;48.726;9.370;2023-05-14T04:44:51;13.23;;;10.60;;
78740;SDS011;68062;48.726;9.370;2023-05-14T04:47:17;11.50;;;9.70;;
78740;SDS011;68062;48.726;9.370;2023-05-14T04:49:46;12.70;;;10.30;;
78740;SDS011;68062;48.726;9.370;2023-05-14T04:52:13;13.30;;;11.40;;
78740;SDS011;68062;48.726;9.370;2023-05-14T04:54:39;9.60;;;9.10;;
78740;SDS011;68062;48.726;9.370;2023-05-14T04:57:06;10.63;;;8.77;;
78740;SDS011;68062;48.726;9.370;2023-05-14T04:59:32;11.13;;;9.40;;
78740;SDS011;68062;48.726;9.370;2023-05-14T05:01:59;11.07;;;10.47;;
78740;SDS011;68062;48.726;9.370;2023-05-14T05:04:26;10.63;;;10.03;;
78740;SDS011;68062;48.726;9.370;2023-05-14T05:06:54;10.63;;;9.37;;
78740;SDS011;68062;48.726;9.370;2023-05-14T05:09:20;10.50;;;9.27;;
78740;SDS011;68062;48.726;9.370;2023-05-14T05:11:47;10.00;;;9.03;;
78740;SDS011;68062;48.726;9.370;2023-05-14T05:14:13;10.77;;;9.80;;
78740;SDS011;68062;48.726;9.370;2023-05-14T05:16:40;11.40;;;10.13;;
78740;SDS011;68062;48.726;9.370;2023-05-14T05:19:07;10.07;;;8.90;;
78740;SDS011;68062;48.726;9.370;2023-05-14T05:21:33;14.33;;;10.27;;
78740;SDS011;68062;48.726;9.370;2023-05-14T05:24:02;11.60;;;10.13;;
78740;SDS011;68062;48.726;9.370;2023-05-14T05:26:28;11.20;;;9.80;;
78740;SDS011;68062;48.726;9.370;2023-05-14T05:28:56;11.93;;;9.97;;
78740;SDS011;68062;48.726;9.370;2023-05-14T05:31:22;9.97;;;9.43;;
78740;SDS011;68062;48.726;9.370;2023-05-14T05:33:49;12.00;;;9.80;;
78740;SDS011;68062;48.726;9.370;2023-05-14T05:36:16;10.17;;;8.77;;
78740;SDS011;68062;48.726;9.370;2023-05-14T05:38:42;10.97;;;10.23;;
78740;SDS011;68062;48.726;9.370;2023-05-14T05:41:10;11.20;;;9.10;;
78740;SDS011;68062;48.726;9.370;2023-05-14T05:43:37;10.53;;;8.87;;
78740;SDS011;68062;48.726;9.370;2023-05-14T05:46:03;10.37;;;9.23;;
78740;SDS011;68062;48.726;9.370;2023-05-14T05:48:30;12.00;;;9.97;;
78740;SDS011;68062;48.726;9.370;2023-05-14T05:50:56;10.70;;;9.03;;
78740;SDS011;68062;48.726;9.370;2023-05-14T05:53:23;12.03;;;9.20;;
78740;SDS011;68062;48.726;9.370;2023-05-14T05:55:50;10.20;;;8.80;;
78740;SDS011;68062;48.726;9.370;2023-05-14T05:58:18;10.63;;;8.70;;
78740;SDS011;68062;48.726;9.370;2023-05-14T06:00:45;10.90;;;9.60;;
78740;SDS011;68062;48.726;9.370;2023-05-14T06:03:13;10.10;;;9.30;;
78740;SDS011;68062;48.726;9.370;2023-05-14T06:05:40;10.30;;;9.80;;
78740;SDS011;68062;48.726;9.370;2023-05-14T06:08:07;12.40;;;9.87;;
78740;SDS011;68062;48.726;9.370;2023-05-14T06:10:34;10.93;;;9.17;;
78740;SDS011;68062;48.726;9.370;2023-05-14T06:13:01;10.10;;;8.73;;
78740;SDS011;68062;48.726;9.370;2023-05-14T06:15:29;11.40;;;9.77;;
78740;SDS011;68062;48.726;9.370;2023-05-14T06:17:56;10.53;;;8.93;;
78740;SDS011;68062;48.726;9.370;2023-05-14T06:20:23;10.47;;;8.73;;
78740;SDS011;68062;48.726;9.370;2023-05-14T06:22:49;14.40;;;9.93;;
78740;SDS011;68062;48.726;9.370;2023-05-14T06:25:16;12.10;;;9.73;;
78740;SDS011;68062;48.726;9.370;2023-05-14T06:27:43;13.20;;;10.07;;
78740;SDS011;68062;48.726;9.370;2023-05-14T06:30:10;11.33;;;9.43;;
78740;SDS011;68062;48.726;9.370;2023-05-14T06:32:39;10.87;;;9.10;;
78740;SDS011;68062;48.726;9.370;2023-05-14T06:35:06;9.00;;;8.50;;
78740;SDS011;68062;48.726;9.370;2023-05-14T06:37:33;9.03;;;8.23;;
78740;SDS011;68062;48.726;9.370;2023-05-14T06:40:00;9.90;;;9.40;;
78740;SDS011;68062;48.726;9.370;2023-05-14T06:42:27;9.90;;;8.37;;
78740;SDS011;68062;48.726;9.370;2023-05-14T06:44:54;10.30;;;9.80;;
78740;SDS011;68062;48.726;9.370;2023-05-14T06:47:20;10.53;;;9.43;;
78740;SDS011;68062;48.726;9.370;2023-05-14T06:49:48;11.83;;;9.70;;
78740;SDS011;68062;48.726;9.370;2023-05-14T06:52:15;12.53;;;9.90;;
78740;SDS011;68062;48.726;9.370;2023-05-14T06:54:42;10.80;;;9.23;;
78740;SDS011;68062;48.726;9.370;2023-05-14T06:57:08;10.90;;;10.20;;
78740;SDS011;68062;48.726;9.370;2023-05-14T06:59:35;13.93;;;12.17;;
78740;SDS011;68062;48.726;9.370;2023-05-14T07:02:02;10.90;;;9.97;;
78740;SDS011;68062;48.726;9.370;2023-05-14T07:04:28;11.47;;;10.03;;
78740;SDS011;68062;48.726;9.370;2023-05-14T07:06:56;10.77;;;10.17;;
78740;SDS011;68062;48.726;9.370;2023-05-14T07:09:23;10.50;;;9.13;;
78740;SDS011;68062;48.726;9.370;2023-05-14T07:11:49;11.60;;;9.10;;
78740;SDS011;68062;48.726;9.370;2023-05-14T07:14:16;9.93;;;8.90;;
78740;SDS011;68062;48.726;9.370;2023-05-14T07:16:42;11.20;;;8.87;;
78740;SDS011;68062;48.726;9.370;2023-05-14T07:19:11;10.67;;;9.83;;
78740;SDS011;68062;48.726;9.370;2023-05-14T07:21:38;9.07;;;8.13;;
78740;SDS011;68062;48.726;9.370;2023-05-14T07:24:06;12.70;;;8.50;;
78740;SDS011;68062;48.726;9.370;2023-05-14T07:26:32;10.07;;;9.60;;
78740;SDS011;68062;48.726;9.370;2023-05-14T07:28:59;10.30;;;8.90;;
78740;SDS011;68062;48.726;9.370;2023-05-14T07:31:26;9.70;;;9.20;;
78740;SDS011;68062;48.726;9.370;2023-05-14T07:33:52;9.33;;;8.80;;
78740;SDS011;68062;48.726;9.370;2023-05-14T07:36:19;13.20;;;9.57;;
78740;SDS011;68062;48.726;9.370;2023-05-14T07:38:45;10.23;;;9.13;;
78740;SDS011;68062;48.726;9.370;2023-05-14T07:41:13;9.50;;;9.03;;
78740;SDS011;68062;48.726;9.370;2023-05-14T07:43:40;10.70;;;8.83;;
78740;SDS011;68062;48.726;9.370;2023-05-14T07:46:06;9.97;;;9.10;;
78740;SDS011;68062;48.726;9.370;2023-05-14T07:48:33;10.17;;;9.60;;
78740;SDS011;68062;48.726;9.370;2023-05-14T07:50:59;11.43;;;9.47;;
78740;SDS011;68062;48.726;9.370;2023-05-14T07:53:26;11.10;;;9.57;;
78740;SDS011;68062;48.726;9.370;2023-05-14T07:55:53;10.20;;;8.20;;
78740;SDS011;68062;48.726;9.370;2023-05-14T07:58:21;13.70;;;9.67;;
78740;SDS011;68062;48.726;9.370;2023-05-14T08:00:48;12.13;;;10.07;;
78740;SDS011;68062;48.726;9.370;2023-05-14T08:03:14;9.70;;;8.80;;
78740;SDS011;68062;48.726;9.370;2023-05-14T08:05:41;8.87;;;8.37;;
78740;SDS011;68062;48.726;9.370;2023-05-14T08:08:07;9.30;;;8.90;;
78740;SDS011;68062;48.726;9.370;2023-05-14T08:10:34;8.47;;;8.00;;
78740;SDS011;68062;48.726;9.370;2023-05-14T08:13:00;10.77;;;9.03;;
78740;SDS011;68062;48.726;9.370;2023-05-14T08:15:29;11.80;;;8.43;;
78740;SDS011;68062;48.726;9.370;2023-05-14T08:17:55;10.10;;;9.17;;
78740;SDS011;68062;48.726;9.370;2023-05-14T08:20:28;10.77;;;9.20;;
78740;SDS011;68062;48.726;9.370;2023-05-14T08:22:55;12.60;;;9.30;;
78740;SDS011;68062;48.726;9.370;2023-05-14T08:25:22;9.00;;;8.50;;
78740;SDS011;68062;48.726;9.370;2023-05-14T08:27:48;9.53;;;8.93;;
78740;SDS011;68062;48.726;9.370;2023-05-14T08:30:15;10.80;;;8.23;;
78740;SDS011;68062;48.726;9.370;2023-05-14T08:32:43;11.20;;;8.53;;
78740;SDS011;68062;48.726;9.370;2023-05-14T08:35:10;9.50;;;9.00;;
78740;SDS011;68062;48.726;9.370;2023-05-14T08:37:37;10.27;;;9.17;;
78740;SDS011;68062;48.726;9.370;2023-05-14T08:40:04;9.83;;;8.20;;
78740;SDS011;68062;48.726;9.370;2023-05-14T08:42:32;9.33;;;8.70;;
78740;SDS011;68062;48.726;9.370;2023-05-14T08:45:00;9.97;;;8.43;;
78740;SDS011;68062;48.726;9.370;2023-05-14T08:47:28;8.80;;;8.30;;
78740;SDS011;68062;48.726;9.370;2023-05-14T08:49:59;8.77;;;7.90;;
78740;SDS011;68062;48.726;9.370;2023-05-14T08:52:28;9.97;;;9.27;;
78740;SDS011;68062;48.726;9.370;2023-05-14T08:54:56;9.43;;;8.93;;
78740;SDS011;68062;48.726;9.370;2023-05-14T08:57:26;8.67;;;8.17;;
78740;SDS011;68062;48.726;9.370;2023-05-14T08:59:55;8.37;;;7.90;;
78740;SDS011;68062;48.726;9.370;2023-05-14T09:02:23;11.23;;;9.33;;
78740;SDS011;68062;48.726;9.370;2023-05-14T09:04:53;11.73;;;8.60;;
78740;SDS011;68062;48.726;9.370;2023-05-14T09:07:23;10.70;;;9.27;;
78740;SDS011;68062;48.726;9.370;2023-05-14T09:09:50;10.20;;;8.60;;
78740;SDS011;68062;48.726;9.370;2023-05-14T09:12:18;9.90;;;9.43;;
78740;SDS011;68062;48.726;9.370;2023-05-14T09:14:46;11.30;;;9.20;;
78740;SDS011;68062;48.726;9.370;2023-05-14T09:17:13;8.90;;;8.40;;
78740;SDS011;68062;48.726;9.370;2023-05-14T09:19:44;9.70;;;8.47;;
78740;SDS011;68062;48.726;9.370;2023-05-14T09:22:13;10.63;;;10.07;;
78740;SDS011;68062;48.726;9.370;2023-05-14T09:24:43;10.20;;;8.90;;
78740;SDS011;68062;48.726;9.370;2023-05-14T09:27:14;10.83;;;8.10;;
78740;SDS011;68062;48.726;9.370;2023-05-14T09:29:44;9.73;;;9.20;;
78740;SDS011;68062;48.726;9.370;2023-05-14T09:32:11;11.93;;;9.63;;
78740;SDS011;68062;48.726;9.370;2023-05-14T09:37:51;10.30;;;8.90;;
78740;SDS011;68062;48.726;9.370;2023-05-14T09:40:21;10.77;;;9.57;;
78740;SDS011;68062;48.726;9.370;2023-05-14T09:42:49;9.60;;;8.60;;
78740;SDS011;68062;48.726;9.370;2023-05-14T09:49:02;12.47;;;9.40;;
78740;SDS011;68062;48.726;9.370;2023-05-14T09:51:29;8.93;;;8.17;;
78740;SDS011;68062;48.726;9.370;2023-05-14T09:53:56;9.53;;;8.93;;
78740;SDS011;68062;48.726;9.370;2023-05-14T09:56:25;9.03;;;8.47;;
78740;SDS011;68062;48.726;9.370;2023-05-14T09:58:52;9.07;;;7.50;;
78740;SDS011;68062;48.726;9.370;2023-05-14T10:01:19;11.93;;;8.30;;
78740;SDS011;68062;48.726;9.370;2023-05-14T10:03:46;9.17;;;8.67;;
78740;SDS011;68062;48.726;9.370;2023-05-14T10:06:15;8.47;;;7.97;;
78740;SDS011;68062;48.726;9.370;2023-05-14T10:08:44;9.00;;;8.53;;
78740;SDS011;68062;48.726;9.370;2023-05-14T10:11:13;8.90;;;8.20;;
78740;SDS011;68062;48.726;9.370;2023-05-14T10:13:47;9.50;;;8.97;;
78740;SDS011;68062;48.726;9.370;2023-05-14T10:16:23;9.40;;;8.17;;
78740;SDS011;68062;48.726;9.370;2023-05-14T10:18:55;8.90;;;8.40;;
78740;SDS011;68062;48.726;9.370;2023-05-14T10:21:26;7.07;;;6.67;;
78740;SDS011;68062;48.726;9.370;2023-05-14T10:23:56;9.93;;;7.63;;
78740;SDS011;68062;48.726;9.370;2023-05-14T10:26:23;7.40;;;7.00;;
78740;SDS011;68062;48.726;9.370;2023-05-14T10:28:51;11.17;;;8.30;;
78740;SDS011;68062;48.726;9.370;2023-05-14T10:31:21;7.87;;;7.00;;
78740;SDS011;68062;48.726;9.370;2023-05-14T10:33:49;7.00;;;6.60;;
78740;SDS011;68062;48.726;9.370;2023-05-14T10:36:16;9.20;;;6.90;;
78740;SDS011;68062;48.726;9.370;2023-05-14T10:38:43;8.13;;;7.60;;
78740;SDS011;68062;48.726;9.370;2023-05-14T10:41:11;7.57;;;7.13;;
78740;SDS011;68062;48.726;9.370;2023-05-14T10:43:39;7.10;;;6.73;;
78740;SDS011;68062;48.726;9.370;2023-05-14T10:46:08;8.03;;;7.33;;
78740;SDS011;68062;48.726;9.370;2023-05-14T10:48:36;8.03;;;6.70;;
78740;SDS011;68062;48.726;9.370;2023-05-14T10:51:06;7.03;;;6.63;;
78740;SDS011;68062;48.726;9.370;2023-05-14T10:53:36;7.57;;;7.17;;
78740;SDS011;68062;48.726;9.370;2023-05-14T10:56:04;6.93;;;6.53;;
78740;SDS011;68062;48.726;9.370;2023-05-14T10:58:35;7.17;;;6.30;;
78740;SDS011;68062;48.726;9.370;2023-05-14T11:01:04;5.73;;;5.43;;
78740;SDS011;68062;48.726;9.370;2023-05-14T11:03:37;6.93;;;6.00;;
78740;SDS011;68062;48.726;9.370;2023-05-14T11:06:05;7.37;;;6.57;;
78740;SDS011;68062;48.726;9.370;2023-05-14T11:08:32;8.60;;;7.30;;
78740;SDS011;68062;48.726;9.370;2023-05-14T11:10:59;6.43;;;5.17;;
78740;SDS011;68062;48.726;9.370;2023-05-14T11:13:26;6.50;;;6.10;;
78740;SDS011;68062;48.726;9.370;2023-05-14T11:15:53;7.27;;;6.87;;
78740;SDS011;68062;48.726;9.370;2023-05-14T11:18:26;5.40;;;5.13;;
78740;SDS011;68062;48.726;9.370;2023-05-14T11:20:58;5.80;;;5.50;;
78740;SDS011;68062;48.726;9.370;2023-05-14T11:23:25;5.43;;;5.13;;
78740;SDS011;68062;48.726;9.370;2023-05-14T11:25:52;5.73;;;5.43;;
78740;SDS011;68062;48.726;9.370;2023-05-14T11:28:19;5.50;;;4.80;;
78740;SDS011;68062;48.726;9.370;2023-05-14T11:30:47;4.93;;;4.63;;
78740;SDS011;68062;48.726;9.370;2023-05-14T11:33:14;4.23;;;4.00;;
78740;SDS011;68062;48.726;9.370;2023-05-14T11:35:42;7.70;;;4.80;;
78740;SDS011;68062;48.726;9.370;2023-05-14T11:38:13;5.13;;;4.83;;
78740;SDS011;68062;48.726;9.370;2023-05-14T11:40:41;4.37;;;4.07;;
78740;SDS011;68062;48.726;9.370;2023-05-14T11:43:08;5.70;;;4.63;;
78740;SDS011;68062;48.726;9.370;2023-05-14T11:45:35;6.80;;;5.00;;
78740;SDS011;68062;48.726;9.370;2023-05-14T11:48:10;4.23;;;3.97;;
78740;SDS011;68062;48.726;9.370;2023-05-14T11:50:39;5.10;;;4.80;;
78740;SDS011;68062;48.726;9.370;2023-05-14T11:53:05;6.80;;;4.23;;
78740;SDS011;68062;48.726;9.370;2023-05-14T11:55:34;4.10;;;3.90;;
78740;SDS011;68062;48.726;9.370;2023-05-14T11:58:01;4.13;;;3.87;;
78740;SDS011;68062;48.726;9.370;2023-05-14T12:00:27;4.23;;;3.97;;
78740;SDS011;68062;48.726;9.370;2023-05-14T12:02:55;7.07;;;4.80;;
78740;SDS011;68062;48.726;9.370;2023-05-14T12:05:22;6.13;;;4.43;;
78740;SDS011;68062;48.726;9.370;2023-05-14T12:07:49;4.37;;;4.13;;
78740;SDS011;68062;48.726;9.370;2023-05-14T12:10:16;3.93;;;3.73;;
78740;SDS011;68062;48.726;9.370;2023-05-14T12:12:45;5.10;;;4.47;;
78740;SDS011;68062;48.726;9.370;2023-05-14T12:15:13;4.50;;;4.20;;
78740;SDS011;68062;48.726;9.370;2023-05-14T12:17:41;4.87;;;4.57;;
78740;SDS011;68062;48.726;9.370;2023-05-14T12:20:09;5.30;;;4.20;;
78740;SDS011;68062;48.726;9.370;2023-05-14T12:22:37;5.60;;;3.87;;
78740;SDS011;68062;48.726;9.370;2023-05-14T12:25:08;4.80;;;4.37;;
78740;SDS011;68062;48.726;9.370;2023-05-14T12:27:36;4.23;;;4.00;;
78740;SDS011;68062;48.726;9.370;2023-05-14T12:30:06;6.77;;;4.33;;
78740;SDS011;68062;48.726;9.370;2023-05-14T12:32:33;4.70;;;4.40;;
78740;SDS011;68062;48.726;9.370;2023-05-14T12:35:01;4.50;;;4.20;;
78740;SDS011;68062;48.726;9.370;2023-05-14T12:37:28;4.33;;;4.03;;
78740;SDS011;68062;48.726;9.370;2023-05-14T12:39:54;4.10;;;3.90;;
78740;SDS011;68062;48.726;9.370;2023-05-14T12:42:21;3.97;;;3.77;;
78740;SDS011;68062;48.726;9.370;2023-05-14T12:44:48;3.53;;;3.33;;
78740;SDS011;68062;48.726;9.370;2023-05-14T12:47:16;4.10;;;3.90;;
78740;SDS011;68062;48.726;9.370;2023-05-14T12:49:42;4.00;;;3.53;;
78740;SDS011;68062;48.726;9.370;2023-05-14T12:52:09;4.77;;;3.90;;
78740;SDS011;68062;48.726;9.370;2023-05-14T12:54:35;4.97;;;4.20;;
78740;SDS011;68062;48.726;9.370;2023-05-14T12:57:04;4.73;;;4.43;;
78740;SDS011;68062;48.726;9.370;2023-05-14T12:59:31;6.23;;;4.53;;
78740;SDS011;68062;48.726;9.370;2023-05-14T13:01:58;4.90;;;4.60;;
78740;SDS011;68062;48.726;9.370;2023-05-14T13:04:27;5.23;;;4.83;;
78740;SDS011;68062;48.726;9.370;2023-05-14T13:06:54;4.43;;;4.23;;
78740;SDS011;68062;48.726;9.370;2023-05-14T13:09:21;4.37;;;4.07;;
78740;SDS011;68062;48.726;9.370;2023-05-14T13:11:48;4.60;;;4.30;;
78740;SDS011;68062;48.726;9.370;2023-05-14T13:14:14;4.30;;;4.00;;
78740;SDS011;68062;48.726;9.370;2023-05-14T13:16:42;4.40;;;3.77;;
78740;SDS011;68062;48.726;9.370;2023-05-14T13:19:09;4.07;;;3.87;;
78740;SDS011;68062;48.726;9.370;2023-05-14T13:21:37;4.40;;;4.10;;
78740;SDS011;68062;48.726;9.370;2023-05-14T13:24:03;5.43;;;3.60;;
78740;SDS011;68062;48.726;9.370;2023-05-14T13:26:30;3.70;;;3.17;;
78740;SDS011;68062;48.726;9.370;2023-05-14T13:28:57;3.40;;;3.20;;
78740;SDS011;68062;48.726;9.370;2023-05-14T13:31:23;3.80;;;3.60;;
78740;SDS011;68062;48.726;9.370;2023-05-14T13:33:50;3.30;;;3.10;;
78740;SDS011;68062;48.726;9.370;2023-05-14T13:36:16;3.33;;;3.13;;
78740;SDS011;68062;48.726;9.370;2023-05-14T13:38:44;4.03;;;3.83;;
78740;SDS011;68062;48.726;9.370;2023-05-14T13:41:11;3.07;;;2.90;;
78740;SDS011;68062;48.726;9.370;2023-05-14T13:43:38;4.80;;;3.20;;
78740;SDS011;68062;48.726;9.370;2023-05-14T13:46:04;3.20;;;3.00;;
78740;SDS011;68062;48.726;9.370;2023-05-14T13:48:32;3.17;;;2.97;;
78740;SDS011;68062;48.726;9.370;2023-05-14T13:51:00;7.00;;;2.73;;
78740;SDS011;68062;48.726;9.370;2023-05-14T13:53:26;2.60;;;2.40;;
78740;SDS011;68062;48.726;9.370;2023-05-14T13:55:54;2.87;;;2.67;;
78740;SDS011;68062;48.726;9.370;2023-05-14T13:58:23;3.50;;;3.30;;
78740;SDS011;68062;48.726;9.370;2023-05-14T14:00:50;2.77;;;2.57;;
78740;SDS011;68062;48.726;9.370;2023-05-14T14:03:17;3.37;;;3.17;;
78740;SDS011;68062;48.726;9.370;2023-05-14T14:05:44;6.80;;;3.10;;
78740;SDS011;68062;48.726;9.370;2023-05-14T14:08:11;2.77;;;2.57;;
78740;SDS011;68062;48.726;9.370;2023-05-14T14:10:38;5.10;;;3.37;;
78740;SDS011;68062;48.726;9.370;2023-05-14T14:13:08;3.87;;;2.83;;
78740;SDS011;68062;48.726;9.370;2023-05-14T14:15:35;3.00;;;2.80;;
78740;SDS011;68062;48.726;9.370;2023-05-14T14:18:03;2.97;;;2.57;;
78740;SDS011;68062;48.726;9.370;2023-05-14T14:20:29;3.40;;;2.70;;
78740;SDS011;68062;48.726;9.370;2023-05-14T14:22:56;3.10;;;2.90;;
78740;SDS011;68062;48.726;9.370;2023-05-14T14:25:22;3.60;;;3.40;;
78740;SDS011;68062;48.726;9.370;2023-05-14T14:27:49;3.00;;;2.80;;
78740;SDS011;68062;48.726;9.370;2023-05-14T14:30:17;3.60;;;3.30;;
78740;SDS011;68062;48.726;9.370;2023-05-14T14:32:44;3.40;;;3.20;;
78740;SDS011;68062;48.726;9.370;2023-05-14T14:35:11;3.70;;;3.50;;
78740;SDS011;68062;48.726;9.370;2023-05-14T14:37:39;4.13;;;3.40;;
78740;SDS011;68062;48.726;9.370;2023-05-14T14:40:06;3.80;;;3.37;;
78740;SDS011;68062;48.726;9.370;2023-05-14T14:42:34;2.90;;;2.70;;
78740;SDS011;68062;48.726;9.370;2023-05-14T14:45:02;3.17;;;2.97;;
78740;SDS011;68062;48.726;9.370;2023-05-14T14:47:31;2.90;;;2.73;;
78740;SDS011;68062;48.726;9.370;2023-05-14T14:49:57;3.33;;;3.13;;